首页
METAR-TAF:

METAR-TAF

机场 :

阿克套, 哈萨克斯坦

纬度: 43-52-12N, 经度: 051-06E, 海拔: 22米

当前天气观测

该预报发布于22分钟前的21:30 UTC
风速14节,风向东转东南
温度 8°C
湿度 16%
气压 1018 hPa
能见度10公里或以上
1500米以下无云,无积雨云

METAR: UATE 282130Z 11007MPS CAVOK 08/M16 Q1018 R12/0///70 NOSIG RMK QFE761/1015

时间: 02:52 (21:52 UTC)

预报

该预报发布于4小时和48分钟前的17:04 UTC
预报有效从28日的 18点(UTC)到 29日的 18点(UTC)
风速12节,风向
能见度10公里或以上
1500米以下无云,无积雨云
成为
从 29日的 04点(UTC)到 29日的 06点(UTC)
风速17节,风向东转东南,有时为29节阵风
成为
从 29日的 13点(UTC)到 29日的 15点(UTC)
风速16节,风向
成为
从 29日的 16点(UTC)到 29日的 18点(UTC)
风速14节,风向
散云层高于5000英尺, 积雨云.

TAF: UATE 281704Z 2818/2918 08006MPS CAVOK TX18/2909Z TN03/2902Z BECMG 2904/2906 12009G15MPS BECMG 2913/2915 18008MPS BECMG 2916/2918 10007MPS SCT050CB

超过4000个机场的气象观测和天气预报(METAR&TAF报告)。

可查询的气象台以黄色和红色小点在地图上表示。

将鼠标移到小点上方,可查看气象台名称。

然后点击查看天气观测和预报。

如需切换地图:点击带黑十字的绿色按钮放大地图;点击带横线的绿色按钮缩小地图;或者点击绿色箭头查看邻近地区的地图。


METAR-TAF: